createdAt,value
2018-04-07T00:00:29.345Z,9.1
2018-04-07T00:01:30.790Z,9.3
2018-04-07T00:02:32.179Z,9.3
2018-04-07T00:03:33.430Z,9.1
2018-04-07T00:04:34.710Z,9.1
2018-04-07T00:05:35.942Z,8.9
2018-04-07T00:06:37.397Z,8.9
2018-04-07T00:07:42.702Z,8.8
2018-04-07T00:08:45.343Z,9.1
2018-04-07T00:09:46.602Z,9.1
2018-04-07T00:10:47.822Z,9.2
2018-04-07T00:11:49.138Z,9.1
2018-04-07T00:12:50.454Z,8.9
2018-04-07T00:13:51.715Z,8.8
2018-04-07T00:14:52.926Z,8.9
2018-04-07T00:15:54.207Z,8.8
2018-04-07T00:16:55.463Z,8.9
2018-04-07T00:17:56.757Z,8.9
2018-04-07T00:18:58.020Z,9
2018-04-07T00:19:59.364Z,8.8
2018-04-07T00:21:00.890Z,8.9
2018-04-07T00:22:02.223Z,8.9
2018-04-07T00:23:03.556Z,8.9
2018-04-07T00:24:04.845Z,8.7
2018-04-07T00:25:06.127Z,8.7
2018-04-07T00:26:07.381Z,8.7
2018-04-07T00:27:08.668Z,8.7
2018-04-07T00:28:10.117Z,8.7
2018-04-07T00:29:11.376Z,8.7
2018-04-07T00:30:12.602Z,8.7
2018-04-07T00:31:13.844Z,8.6
2018-04-07T00:32:18.895Z,8.7
2018-04-07T00:33:20.241Z,8.7
2018-04-07T00:34:21.510Z,8.7
2018-04-07T00:35:22.739Z,8.7
2018-04-07T00:36:24.109Z,8.6
2018-04-07T00:37:25.368Z,8.6
2018-04-07T00:38:26.686Z,8.7
2018-04-07T00:39:28.389Z,8.7
2018-04-07T00:40:29.681Z,8.6
2018-04-07T00:41:31.045Z,8.6
2018-04-07T00:42:32.329Z,8.5
2018-04-07T00:43:33.734Z,8.6
2018-04-07T00:44:35.039Z,8.5
2018-04-07T00:45:36.276Z,8.4
2018-04-07T00:46:37.519Z,8.5
2018-04-07T00:47:38.753Z,8.4
2018-04-07T00:48:40.052Z,8.6
2018-04-07T00:49:41.351Z,8.7
2018-04-07T00:50:42.564Z,8.6
2018-04-07T00:51:43.773Z,8.6
2018-04-07T00:52:45.145Z,8.5
2018-04-07T00:53:46.432Z,8.5
2018-04-07T00:54:47.654Z,8.5
2018-04-07T00:55:48.882Z,8.6
2018-04-07T00:56:50.227Z,8.5
2018-04-07T00:57:51.496Z,8.2
2018-04-07T00:58:53.026Z,8.4
2018-04-07T00:59:54.253Z,8.4
2018-04-07T01:00:55.615Z,8.2
2018-04-07T01:02:01.821Z,8.3
2018-04-07T01:03:03.124Z,8.5
2018-04-07T01:04:04.591Z,8.3
2018-04-07T01:05:05.882Z,8.3
2018-04-07T01:06:07.122Z,8.3
2018-04-07T01:07:08.346Z,8.2
2018-04-07T01:08:11.257Z,8.2
2018-04-07T01:09:15.126Z,8.1
2018-04-07T01:10:16.397Z,8.1
2018-04-07T01:11:21.420Z,8.2
2018-04-07T01:12:24.859Z,8.2
2018-04-07T01:13:26.110Z,8.7
2018-04-07T01:14:27.357Z,8.5
2018-04-07T01:15:28.691Z,8.3
2018-04-07T01:16:29.893Z,8.3
2018-04-07T01:17:31.193Z,8.4
2018-04-07T01:18:32.553Z,8.4
2018-04-07T01:19:33.859Z,8.3
2018-04-07T01:20:35.169Z,8.7
2018-04-07T01:21:36.454Z,8.7
2018-04-07T01:22:37.737Z,8.4
2018-04-07T01:23:39.039Z,8.3
2018-04-07T01:24:40.411Z,8.4
2018-04-07T01:25:41.739Z,8.4
2018-04-07T01:26:43.005Z,8.2
2018-04-07T01:27:44.249Z,8.1
2018-04-07T01:28:45.469Z,8.1
2018-04-07T01:29:46.753Z,8
2018-04-07T01:30:48.041Z,8.6
2018-04-07T01:31:49.272Z,8.3
2018-04-07T01:32:50.508Z,8.1
2018-04-07T01:33:51.770Z,8.3
2018-04-07T01:34:53.041Z,7.9
2018-04-07T01:35:54.298Z,8
2018-04-07T01:36:55.529Z,8
2018-04-07T01:37:56.792Z,8
2018-04-07T01:38:58.023Z,7.8
2018-04-07T01:39:59.342Z,7.8
2018-04-07T01:41:00.626Z,7.8
2018-04-07T01:42:01.917Z,7.9
2018-04-07T01:43:03.177Z,7.9
2018-04-07T01:44:04.481Z,7.8
2018-04-07T01:45:05.837Z,7.8
2018-04-07T01:46:07.180Z,7.7
2018-04-07T01:47:08.424Z,7.8
2018-04-07T01:48:09.685Z,7.7
2018-04-07T01:49:10.925Z,7.7
2018-04-07T01:50:12.283Z,7.6
2018-04-07T01:51:13.677Z,7.7
2018-04-07T01:52:14.928Z,7.7
2018-04-07T01:53:16.295Z,7.8
2018-04-07T01:54:17.564Z,7.8
2018-04-07T01:55:18.842Z,7.8
2018-04-07T01:56:26.880Z,7.7
2018-04-07T01:57:28.114Z,8.1
2018-04-07T01:58:29.374Z,8
2018-04-07T01:59:31.064Z,7.9
2018-04-07T02:00:32.392Z,7.8
2018-04-07T02:01:33.624Z,7.7
2018-04-07T02:02:34.890Z,7.7
2018-04-07T02:03:36.226Z,7.6
2018-04-07T02:04:37.507Z,7.6
2018-04-07T02:05:38.820Z,7.7
2018-04-07T02:06:40.057Z,7.6
2018-04-07T02:07:41.291Z,7.6
2018-04-07T02:08:42.567Z,7.6
2018-04-07T02:09:43.819Z,7.6
2018-04-07T02:10:45.100Z,7.5
2018-04-07T02:11:46.339Z,7.4
2018-04-07T02:12:47.581Z,7.6
2018-04-07T02:13:49.038Z,7.4
2018-04-07T02:14:50.613Z,7.3
2018-04-07T02:15:51.974Z,7.6
2018-04-07T02:16:53.436Z,7.7
2018-04-07T02:17:54.781Z,7.8
2018-04-07T02:18:56.089Z,7.7
2018-04-07T02:19:57.362Z,7.6
2018-04-07T02:20:58.697Z,7.6
2018-04-07T02:21:59.954Z,7.7
2018-04-07T02:23:01.266Z,7.7
2018-04-07T02:24:02.584Z,7.8
2018-04-07T02:25:03.898Z,7.8
2018-04-07T02:26:05.217Z,7.6
2018-04-07T02:27:06.533Z,7.6
2018-04-07T02:28:08.407Z,7.6
2018-04-07T02:29:10.413Z,7.5
2018-04-07T02:30:11.652Z,7.4
2018-04-07T02:31:13.132Z,7.3
2018-04-07T02:32:14.998Z,7.4
2018-04-07T02:33:16.233Z,7.4
2018-04-07T02:34:17.481Z,7.4
2018-04-07T02:35:18.751Z,7.2
2018-04-07T02:36:20.085Z,7.2
2018-04-07T02:37:21.405Z,7.3
2018-04-07T02:38:22.703Z,7.4
2018-04-07T02:39:23.933Z,7.5
2018-04-07T02:40:25.269Z,7.5
2018-04-07T02:41:26.642Z,7.6
2018-04-07T02:42:27.870Z,7.6
2018-04-07T02:43:29.099Z,7.7
2018-04-07T02:44:30.364Z,7.9
2018-04-07T02:45:31.664Z,7.7
2018-04-07T02:46:32.966Z,7.7
2018-04-07T02:47:34.213Z,7.7
2018-04-07T02:48:35.435Z,7.6
2018-04-07T02:49:36.718Z,7.5
2018-04-07T02:50:37.961Z,7.4
2018-04-07T02:51:39.347Z,7.4
2018-04-07T02:52:40.596Z,7.1
2018-04-07T02:53:41.858Z,7.1
2018-04-07T02:54:43.145Z,7
2018-04-07T02:55:44.391Z,7.1
2018-04-07T02:56:45.690Z,7.1
2018-04-07T02:57:46.970Z,6.9
2018-04-07T02:58:48.195Z,7
2018-04-07T02:59:49.456Z,7
2018-04-07T03:00:50.771Z,7.1
2018-04-07T03:01:52.257Z,7
2018-04-07T03:02:53.482Z,7.1
2018-04-07T03:03:54.739Z,7
2018-04-07T03:04:55.964Z,6.9
2018-04-07T03:05:57.479Z,7
2018-04-07T03:06:59.062Z,7
2018-04-07T03:08:04.789Z,6.7
2018-04-07T03:09:06.080Z,6.8
2018-04-07T03:10:07.411Z,6.7
2018-04-07T03:11:08.790Z,6.8
2018-04-07T03:12:10.228Z,6.8
2018-04-07T03:13:11.465Z,6.9
2018-04-07T03:14:12.741Z,6.8
2018-04-07T03:15:14.008Z,6.8
2018-04-07T03:16:15.289Z,6.8
2018-04-07T03:17:16.682Z,6.8
2018-04-07T03:18:18.265Z,6.7
2018-04-07T03:19:19.594Z,6.7
2018-04-07T03:20:20.867Z,6.7
2018-04-07T03:21:22.097Z,6.6
2018-04-07T03:22:23.433Z,6.7
2018-04-07T03:23:24.713Z,6.7
2018-04-07T03:24:25.981Z,6.8
2018-04-07T03:25:27.220Z,6.7
2018-04-07T03:26:28.445Z,6.8
2018-04-07T03:27:29.778Z,6.7
2018-04-07T03:28:31.020Z,6.7
2018-04-07T03:29:32.277Z,6.6
2018-04-07T03:30:33.528Z,6.7
2018-04-07T03:31:34.846Z,6.7
2018-04-07T03:32:36.266Z,6.6
2018-04-07T03:33:37.620Z,6.7
2018-04-07T03:34:38.938Z,6.7
2018-04-07T03:35:40.229Z,6.6
2018-04-07T03:36:41.472Z,6.7
2018-04-07T03:37:42.849Z,6.8
2018-04-07T03:38:44.196Z,6.8
2018-04-07T03:39:45.400Z,6.7
2018-04-07T03:40:46.676Z,6.7
2018-04-07T03:41:47.926Z,6.8
2018-04-07T03:42:49.215Z,6.8
2018-04-07T03:43:50.428Z,6.7
2018-04-07T03:44:51.665Z,6.8
2018-04-07T03:45:52.969Z,6.8
2018-04-07T03:46:54.208Z,7
2018-04-07T03:47:55.524Z,6.9
2018-04-07T03:48:56.756Z,6.7
2018-04-07T03:49:58.021Z,6.7
2018-04-07T03:50:59.251Z,6.7
2018-04-07T03:52:00.506Z,6.8
2018-04-07T03:53:01.848Z,6.7
2018-04-07T03:54:03.145Z,6.6
2018-04-07T03:55:04.411Z,6.5
2018-04-07T03:56:05.709Z,6.6
2018-04-07T03:57:06.984Z,6.6
2018-04-07T03:58:08.404Z,6.4
2018-04-07T03:59:09.684Z,6.5
2018-04-07T04:00:10.955Z,6.6
2018-04-07T04:01:12.290Z,6.7
2018-04-07T04:02:17.324Z,6.6
2018-04-07T04:03:18.922Z,6.7
2018-04-07T04:04:20.196Z,6.8
2018-04-07T04:05:21.443Z,6.8
2018-04-07T04:06:22.713Z,6.8
2018-04-07T04:07:23.967Z,6.8
2018-04-07T04:08:25.257Z,6.8
2018-04-07T04:09:26.516Z,6.8
2018-04-07T04:10:27.792Z,6.8
2018-04-07T04:11:29.054Z,6.7
2018-04-07T04:12:30.299Z,6.7
2018-04-07T04:13:31.639Z,6.8
2018-04-07T04:14:32.909Z,6.6
2018-04-07T04:15:34.230Z,6.6
2018-04-07T04:16:35.641Z,6.7
2018-04-07T04:17:36.973Z,6.6
2018-04-07T04:18:38.346Z,6.9
2018-04-07T04:19:39.589Z,6.8
2018-04-07T04:20:40.818Z,6.7
2018-04-07T04:21:42.124Z,6.7
2018-04-07T04:22:43.423Z,6.8
2018-04-07T04:23:44.696Z,6.8
2018-04-07T04:24:45.950Z,6.7
2018-04-07T04:25:47.161Z,6.5
2018-04-07T04:26:48.472Z,6.7
2018-04-07T04:27:49.710Z,6.8
2018-04-07T04:28:50.976Z,6.8
2018-04-07T04:29:52.224Z,6.8
2018-04-07T04:30:53.859Z,6.8
2018-04-07T04:31:55.127Z,6.7
2018-04-07T04:32:56.387Z,6.8
2018-04-07T04:33:57.819Z,6.9
2018-04-07T04:34:59.091Z,7.1
2018-04-07T04:36:00.342Z,7.1
2018-04-07T04:37:01.573Z,7.3
2018-04-07T04:38:02.890Z,7.3
2018-04-07T04:39:04.276Z,7.2
2018-04-07T04:40:05.662Z,7.1
2018-04-07T04:41:06.988Z,7.4
2018-04-07T04:42:08.273Z,7.2
2018-04-07T04:43:09.550Z,7.1
2018-04-07T04:44:11.070Z,7.3
2018-04-07T04:45:12.323Z,6.8
2018-04-07T04:46:24.709Z,7.2
2018-04-07T04:47:26.021Z,7.2
2018-04-07T04:48:27.255Z,7.1
2018-04-07T04:49:28.553Z,6.9
2018-04-07T04:50:29.841Z,7.1
2018-04-07T04:51:31.143Z,7.1
2018-04-07T04:52:32.533Z,6.9
2018-04-07T04:53:33.842Z,7
2018-04-07T04:54:35.160Z,7.1
2018-04-07T04:55:36.562Z,7.1
2018-04-07T04:56:37.955Z,6.9
2018-04-07T04:57:40.362Z,6.9
2018-04-07T04:58:41.779Z,6.8
2018-04-07T04:59:43.086Z,6.9
2018-04-07T05:00:44.331Z,6.9
2018-04-07T05:01:45.566Z,6.8
2018-04-07T05:02:46.818Z,7
2018-04-07T05:03:48.081Z,7.2
2018-04-07T05:04:49.417Z,7.2
2018-04-07T05:05:50.748Z,7.2
2018-04-07T05:06:51.960Z,7.3
2018-04-07T05:07:53.201Z,7.3
2018-04-07T05:08:54.459Z,7.4
2018-04-07T05:09:55.842Z,7.4
2018-04-07T05:10:57.086Z,7.6
2018-04-07T05:11:58.340Z,7.5
2018-04-07T05:12:59.660Z,7.5
2018-04-07T05:14:00.979Z,7.6
2018-04-07T05:15:02.266Z,7.8
2018-04-07T05:16:03.556Z,7.9
2018-04-07T05:17:04.820Z,8.1
2018-04-07T05:18:06.119Z,8.3
2018-04-07T05:19:07.471Z,8.5
2018-04-07T05:20:08.846Z,8.8
2018-04-07T05:21:10.176Z,9.2
2018-04-07T05:22:11.511Z,9.8
2018-04-07T05:23:13.139Z,10.3
2018-04-07T05:24:14.360Z,10.6
2018-04-07T05:25:15.811Z,10.9
2018-04-07T05:26:17.056Z,11.1
2018-04-07T05:27:18.350Z,11.2
2018-04-07T05:29:21.149Z,11.4
2018-04-07T05:30:22.632Z,11.4
2018-04-07T05:31:23.911Z,11.7
2018-04-07T05:32:25.178Z,11.8
2018-04-07T05:33:26.440Z,11.9
2018-04-07T05:34:27.700Z,12
2018-04-07T05:35:29.057Z,12
2018-04-07T05:36:30.348Z,12
2018-04-07T05:37:31.585Z,12.1
2018-04-07T05:38:32.893Z,12.3
2018-04-07T05:39:34.386Z,12.4
2018-04-07T05:40:35.804Z,12.5
2018-04-07T05:41:37.044Z,12.6
2018-04-07T05:42:38.440Z,12.7
2018-04-07T05:43:39.769Z,12.7
2018-04-07T05:44:41.217Z,12.9
2018-04-07T05:45:42.511Z,12.9
2018-04-07T05:46:43.861Z,13.1
2018-04-07T05:47:45.278Z,13.2
2018-04-07T05:48:46.583Z,13.2
2018-04-07T05:49:47.856Z,13.3
2018-04-07T05:50:49.180Z,13.4
2018-04-07T05:51:50.418Z,13.5
2018-04-07T05:52:51.746Z,13.6
2018-04-07T05:53:53.399Z,13.6
2018-04-07T05:54:54.708Z,13.7
2018-04-07T05:55:56.052Z,13.9
2018-04-07T05:56:57.314Z,13.9
2018-04-07T05:57:58.624Z,14
2018-04-07T05:58:59.852Z,14
2018-04-07T06:00:02.625Z,14.1
2018-04-07T06:01:04.176Z,14
2018-04-07T06:02:05.541Z,14.1
2018-04-07T06:03:06.868Z,14.2
2018-04-07T06:04:08.206Z,14.3
2018-04-07T06:05:09.557Z,14.4
2018-04-07T06:06:11.011Z,14.4
2018-04-07T06:07:12.421Z,14.4
2018-04-07T06:08:14.025Z,14.5
2018-04-07T06:09:15.423Z,14.6
2018-04-07T06:10:16.718Z,14.7
2018-04-07T06:11:18.065Z,14.7
2018-04-07T06:12:19.297Z,14.8
2018-04-07T06:13:20.657Z,14.8
2018-04-07T06:14:21.949Z,14.9
2018-04-07T06:15:23.297Z,15
2018-04-07T06:16:24.689Z,15.1
2018-04-07T06:17:26.043Z,15.2
2018-04-07T06:18:27.305Z,15.2
2018-04-07T06:19:28.556Z,15.3
2018-04-07T06:20:29.899Z,15.4
2018-04-07T06:21:31.563Z,15.4
2018-04-07T06:22:32.894Z,15.3
2018-04-07T06:23:34.296Z,15.5
2018-04-07T06:24:35.555Z,15.6
2018-04-07T06:25:37.028Z,15.6
2018-04-07T06:26:38.748Z,15.8
2018-04-07T06:27:40.300Z,15.9
2018-04-07T06:28:42.577Z,16
2018-04-07T06:29:44.085Z,16.2
2018-04-07T06:30:45.455Z,16.3
2018-04-07T06:31:46.780Z,16.4
2018-04-07T06:32:48.197Z,16.4
2018-04-07T06:33:49.450Z,16.5
2018-04-07T06:34:50.948Z,16.6
2018-04-07T06:35:52.307Z,16.7
2018-04-07T06:36:54.001Z,16.8
2018-04-07T06:37:55.309Z,16.9
2018-04-07T06:38:56.602Z,17
2018-04-07T06:39:57.916Z,17.1
2018-04-07T06:40:59.274Z,17.2
2018-04-07T06:42:00.721Z,17.3
2018-04-07T06:43:02.167Z,17.3
2018-04-07T06:44:03.712Z,17.4
2018-04-07T06:45:05.025Z,17.5
2018-04-07T06:46:06.388Z,17.6
2018-04-07T06:47:07.771Z,17.6
2018-04-07T06:48:09.275Z,17.7
2018-04-07T06:49:10.733Z,17.7
2018-04-07T06:50:12.105Z,17.8
2018-04-07T06:51:13.815Z,17.9
2018-04-07T06:52:21.313Z,18
2018-04-07T06:53:22.654Z,18
2018-04-07T06:54:24.093Z,18
2018-04-07T06:55:25.361Z,18.2
2018-04-07T06:56:26.698Z,18.3
2018-04-07T06:57:28.074Z,18.4
2018-04-07T06:58:29.397Z,18.5
2018-04-07T06:59:30.675Z,18.5
2018-04-07T07:00:32.004Z,18.5
2018-04-07T07:01:33.307Z,18.7
2018-04-07T07:02:38.116Z,18.8
2018-04-07T07:03:39.922Z,18.7
2018-04-07T07:04:41.684Z,18.8
2018-04-07T07:05:43.228Z,18.9
2018-04-07T07:06:44.721Z,18.9
2018-04-07T07:07:46.160Z,19.1
2018-04-07T07:08:47.511Z,19.1
2018-04-07T07:09:48.873Z,19.3
2018-04-07T07:10:50.148Z,19.3
2018-04-07T07:11:51.419Z,19.4
2018-04-07T07:12:52.739Z,19.5
2018-04-07T07:13:54.526Z,19.5
2018-04-07T07:14:55.961Z,19.6
2018-04-07T07:15:57.243Z,19.7
2018-04-07T07:16:58.596Z,19.7
2018-04-07T07:18:00.004Z,19.8
2018-04-07T07:19:01.361Z,19.9
2018-04-07T07:20:02.668Z,19.9
2018-04-07T07:21:04.115Z,20
2018-04-07T07:22:05.523Z,20
2018-04-07T07:23:07.051Z,20.1
2018-04-07T07:24:08.401Z,20.1
2018-04-07T07:25:09.942Z,20.2
2018-04-07T07:26:11.266Z,20.3
2018-04-07T07:27:12.822Z,20.3
2018-04-07T07:28:14.306Z,20.4
2018-04-07T07:29:15.750Z,20.5
2018-04-07T07:30:17.290Z,20.5
2018-04-07T07:31:18.862Z,20.6
2018-04-07T07:32:20.273Z,20.6
2018-04-07T07:33:21.680Z,20.6
2018-04-07T07:34:22.945Z,20.7
2018-04-07T07:35:24.416Z,20.7
2018-04-07T07:36:25.642Z,20.8
2018-04-07T07:37:26.943Z,20.9
2018-04-07T07:38:28.274Z,20.9
2018-04-07T07:39:29.562Z,20.9
2018-04-07T07:40:30.838Z,21
2018-04-07T07:41:32.231Z,21
2018-04-07T07:42:33.593Z,21
2018-04-07T07:43:35.309Z,21.1
2018-04-07T07:44:36.709Z,21.2
2018-04-07T07:45:38.124Z,21.2
2018-04-07T07:46:39.574Z,21.2
2018-04-07T07:47:44.263Z,21.3
2018-04-07T07:48:47.920Z,21.3
2018-04-07T07:49:49.337Z,21.4
2018-04-07T07:50:50.683Z,21.4
2018-04-07T07:51:52.006Z,21.4
2018-04-07T07:52:53.597Z,21.5
2018-04-07T07:53:55.247Z,21.5
2018-04-07T07:54:56.687Z,21.5
2018-04-07T07:55:58.934Z,21.6
2018-04-07T07:57:00.377Z,21.6
2018-04-07T07:58:01.686Z,21.6
2018-04-07T07:59:03.060Z,21.6
2018-04-07T08:00:04.461Z,21.5
2018-04-07T08:01:05.814Z,21.6
2018-04-07T08:02:07.352Z,21.8
2018-04-07T08:03:08.715Z,21.9
2018-04-07T08:04:10.223Z,21.9
2018-04-07T08:05:11.670Z,22
2018-04-07T08:06:13.556Z,22
2018-04-07T08:07:15.303Z,22
2018-04-07T08:08:17.111Z,22
2018-04-07T08:09:18.498Z,22
2018-04-07T08:10:19.932Z,22.1
2018-04-07T08:11:21.353Z,22.1
2018-04-07T08:12:22.813Z,22.2
2018-04-07T08:13:24.254Z,22.2
2018-04-07T08:14:25.808Z,22.2
2018-04-07T08:15:27.140Z,22.2
2018-04-07T08:16:28.434Z,22.3
2018-04-07T08:17:29.882Z,22.3
2018-04-07T08:18:31.221Z,22.3
2018-04-07T08:19:32.649Z,22.4
2018-04-07T08:20:34.356Z,22.4
2018-04-07T08:21:36.159Z,22.5
2018-04-07T08:22:37.660Z,22.5
2018-04-07T08:23:39.074Z,22.5
2018-04-07T08:24:40.545Z,22.5
2018-04-07T08:25:42.043Z,22.5
2018-04-07T08:26:43.419Z,22.5
2018-04-07T08:27:44.989Z,22.5
2018-04-07T08:28:46.391Z,22.5
2018-04-07T08:29:47.814Z,22.5
2018-04-07T08:30:49.562Z,22.6
2018-04-07T08:31:50.862Z,22.6
2018-04-07T08:32:52.650Z,22.7
2018-04-07T08:33:54.793Z,22.7
2018-04-07T08:34:56.434Z,22.7
2018-04-07T08:36:03.927Z,22.7
2018-04-07T08:37:14.829Z,22.7
2018-04-07T08:38:12.588Z,22.7
2018-04-07T08:39:14.243Z,22.8
2018-04-07T08:40:15.992Z,22.8
2018-04-07T08:41:17.439Z,22.8
2018-04-07T08:42:19.452Z,22.8
2018-04-07T08:43:21.078Z,22.8
2018-04-07T08:44:22.734Z,22.8
2018-04-07T08:45:24.588Z,22.8
2018-04-07T08:46:25.872Z,22.8
2018-04-07T08:47:27.522Z,22.8
2018-04-07T08:48:28.898Z,22.8
2018-04-07T08:49:30.230Z,22.8
2018-04-07T08:50:31.619Z,22.9
2018-04-07T08:51:33.200Z,22.8
2018-04-07T08:52:34.592Z,22.9
2018-04-07T08:53:35.925Z,22.9
2018-04-07T08:54:37.440Z,22.9
2018-04-07T08:55:39.288Z,22.9
2018-04-07T08:56:40.876Z,23
2018-04-07T08:57:42.364Z,23
2018-04-07T08:58:44.017Z,23
2018-04-07T08:59:45.598Z,23.1
2018-04-07T09:00:47.189Z,23.1
2018-04-07T09:01:48.729Z,23.1
2018-04-07T09:02:50.171Z,23.1
2018-04-07T09:03:51.564Z,23.1
2018-04-07T09:04:53.133Z,22.9
2018-04-07T09:05:54.798Z,23
2018-04-07T09:06:56.210Z,23.1
2018-04-07T09:07:57.542Z,23.1
2018-04-07T09:08:59.093Z,23.1
2018-04-07T09:10:00.454Z,23.1
2018-04-07T09:11:02.176Z,23.1
2018-04-07T09:12:03.528Z,23.2
2018-04-07T09:13:04.855Z,23.2
2018-04-07T09:14:06.280Z,23.2
2018-04-07T09:15:07.635Z,23.2
2018-04-07T09:16:09.318Z,23.2
2018-04-07T09:17:10.650Z,23.2
2018-04-07T09:18:12.242Z,23.2
2018-04-07T09:19:13.724Z,23.3
2018-04-07T09:20:15.876Z,23.2
2018-04-07T09:21:17.286Z,23.3
2018-04-07T09:22:21.536Z,23.3
2018-04-07T09:23:23.805Z,23.3
2018-04-07T09:24:25.537Z,23.3
2018-04-07T09:25:27.058Z,23.3
2018-04-07T09:26:28.785Z,23.3
2018-04-07T09:27:30.244Z,23.3
2018-04-07T09:28:31.705Z,23.3
2018-04-07T09:29:33.327Z,23.4
2018-04-07T09:30:34.808Z,23.3
2018-04-07T09:31:36.318Z,23.3
2018-04-07T09:32:38.396Z,23.4
2018-04-07T09:33:39.953Z,23.3
2018-04-07T09:34:41.342Z,23.4
2018-04-07T09:35:43.124Z,23.4
2018-04-07T09:36:44.858Z,23.3
2018-04-07T09:37:46.738Z,23.4
2018-04-07T09:38:48.301Z,23.3
2018-04-07T09:39:49.790Z,23.4
2018-04-07T09:40:51.134Z,23.3
2018-04-07T09:41:52.773Z,23.3
2018-04-07T09:42:54.041Z,23.4
2018-04-07T09:43:55.415Z,23.4
2018-04-07T09:44:56.706Z,23.4
2018-04-07T09:45:58.018Z,23.4
2018-04-07T09:46:59.429Z,23.4
2018-04-07T09:48:00.907Z,23.4
2018-04-07T09:49:02.477Z,23.4
2018-04-07T09:50:03.986Z,23.4
2018-04-07T09:51:05.450Z,23.4
2018-04-07T09:52:07.414Z,23.4
2018-04-07T09:53:09.438Z,23.5
2018-04-07T09:54:11.170Z,23.5
2018-04-07T09:55:12.790Z,23.5
2018-04-07T09:56:14.381Z,23.5
2018-04-07T09:57:16.341Z,23.4
2018-04-07T09:58:18.142Z,23.5
2018-04-07T09:59:19.643Z,23.5
2018-04-07T10:00:21.353Z,23.5
2018-04-07T10:01:22.827Z,23.5
2018-04-07T10:02:24.456Z,23.5
2018-04-07T10:03:25.991Z,23.5
2018-04-07T10:04:27.540Z,23.5
2018-04-07T10:05:29.174Z,23.5
2018-04-07T10:06:30.825Z,23.5
2018-04-07T10:07:32.441Z,23.5
2018-04-07T10:08:33.898Z,23.6
2018-04-07T10:09:35.351Z,23.6
2018-04-07T10:10:36.811Z,23.5
2018-04-07T10:11:38.346Z,23.6
2018-04-07T10:12:39.924Z,23.6
2018-04-07T10:13:44.527Z,23.6
2018-04-07T10:14:46.208Z,23.5
2018-04-07T10:15:47.679Z,23.7
2018-04-07T10:16:50.404Z,23.7
2018-04-07T10:17:51.888Z,23.7
2018-04-07T10:18:53.417Z,23.6
2018-04-07T10:19:54.996Z,23.6
2018-04-07T10:20:56.900Z,23.6
2018-04-07T10:21:58.335Z,23.6
2018-04-07T10:22:59.890Z,23.6
2018-04-07T10:24:01.521Z,23.6
2018-04-07T10:25:02.827Z,23.6
2018-04-07T10:26:04.194Z,23.6
2018-04-07T10:27:07.203Z,23.7
2018-04-07T10:28:09.792Z,23.6
2018-04-07T10:29:11.300Z,23.6
2018-04-07T10:30:12.854Z,23.7
2018-04-07T10:31:14.311Z,23.7
2018-04-07T10:32:15.941Z,23.6
2018-04-07T10:33:20.484Z,23.7
2018-04-07T10:34:22.098Z,23.5
2018-04-07T10:35:23.533Z,23.7
2018-04-07T10:36:24.908Z,23.7
2018-04-07T10:37:26.674Z,23.6
2018-04-07T10:38:28.337Z,23.6
2018-04-07T10:39:29.643Z,23.6
2018-04-07T10:40:30.980Z,23.7
2018-04-07T10:41:32.435Z,23.7
2018-04-07T10:42:33.957Z,23.7
2018-04-07T10:43:35.975Z,23.7
2018-04-07T10:44:37.521Z,23.6
2018-04-07T10:45:38.894Z,23.7
2018-04-07T10:46:43.188Z,23.7
2018-04-07T10:47:44.925Z,23.7
2018-04-07T10:48:46.687Z,23.6
2018-04-07T10:49:48.200Z,23.7
2018-04-07T10:50:49.554Z,23.7
2018-04-07T10:51:50.870Z,23.6
2018-04-07T10:52:52.317Z,23.6
2018-04-07T10:53:53.690Z,23.7
2018-04-07T10:54:55.105Z,23.7
2018-04-07T10:55:56.533Z,23.6
2018-04-07T10:56:57.958Z,23.7
2018-04-07T10:57:59.445Z,23.6
2018-04-07T10:59:00.851Z,23.7
2018-04-07T11:00:02.305Z,23.7
2018-04-07T11:01:03.614Z,23.6
2018-04-07T11:02:05.493Z,23.7
2018-04-07T11:03:09.456Z,23.7
2018-04-07T11:04:11.881Z,23.7
2018-04-07T11:05:13.424Z,23.7
2018-04-07T11:06:14.905Z,23.7
2018-04-07T11:07:16.446Z,23.7
2018-04-07T11:08:17.776Z,23.7
2018-04-07T11:09:19.292Z,23.7
2018-04-07T11:10:21.047Z,23.7
2018-04-07T11:11:22.597Z,23.6
2018-04-07T11:12:23.986Z,23.7
2018-04-07T11:13:25.354Z,23.7
2018-04-07T11:14:29.672Z,23.7
2018-04-07T11:15:31.074Z,23.7
2018-04-07T11:16:32.445Z,23.7
2018-04-07T11:17:33.965Z,23.7
2018-04-07T11:18:35.386Z,23.7
2018-04-07T11:19:36.976Z,23.7
2018-04-07T11:20:38.585Z,23.6
2018-04-07T11:21:40.069Z,23.6
2018-04-07T11:22:41.610Z,23.6
2018-04-07T11:23:42.994Z,23.6
2018-04-07T11:24:44.484Z,23.6
2018-04-07T11:25:45.875Z,23.6
2018-04-07T11:26:47.303Z,23.5
2018-04-07T11:27:48.639Z,23.5
2018-04-07T11:28:50.095Z,23.5
2018-04-07T11:29:53.959Z,23.5
2018-04-07T11:30:55.583Z,23.5
2018-04-07T11:31:57.354Z,23.5
2018-04-07T11:32:59.173Z,23.5
2018-04-07T11:34:00.489Z,23.5
2018-04-07T11:35:02.362Z,23.5
2018-04-07T11:36:03.919Z,23.5
2018-04-07T11:37:05.282Z,23.4
2018-04-07T11:38:06.622Z,23.4
2018-04-07T11:39:07.930Z,23.5
2018-04-07T11:40:09.339Z,23.5
2018-04-07T11:41:10.697Z,23.4
2018-04-07T11:42:12.198Z,23.4
2018-04-07T11:43:13.878Z,23.4
2018-04-07T11:44:15.822Z,23.5
2018-04-07T11:45:17.903Z,23.4
2018-04-07T11:46:19.352Z,23.4
2018-04-07T11:47:21.066Z,23.3
2018-04-07T11:48:22.982Z,23.4
2018-04-07T11:49:24.316Z,23.4
2018-04-07T11:50:25.816Z,23.4
2018-04-07T11:51:27.251Z,23.4
2018-04-07T11:52:28.644Z,23.4
2018-04-07T11:53:30.014Z,23.4
2018-04-07T11:54:31.397Z,23.3
2018-04-07T11:55:33.319Z,23.3
2018-04-07T11:56:34.642Z,23.3
2018-04-07T11:57:36.059Z,23.3
2018-04-07T11:58:37.498Z,23.3
2018-04-07T11:59:38.833Z,23.3
2018-04-07T12:00:40.514Z,23.3
2018-04-07T12:01:41.975Z,23.3
2018-04-07T12:02:44.963Z,23.2
2018-04-07T12:03:46.601Z,23.3
2018-04-07T12:04:48.502Z,23.3
2018-04-07T12:05:50.071Z,23.3
2018-04-07T12:06:51.692Z,23.3
2018-04-07T12:07:53.171Z,23.3
2018-04-07T12:08:54.618Z,23.3
2018-04-07T12:09:56.248Z,23.2
2018-04-07T12:10:57.767Z,23.2
2018-04-07T12:11:59.541Z,23.2
2018-04-07T12:13:03.073Z,23.2
2018-04-07T12:14:07.687Z,23.1
2018-04-07T12:15:09.247Z,23.2
2018-04-07T12:16:10.943Z,23.2
2018-04-07T12:17:12.592Z,23.2
2018-04-07T12:18:14.165Z,23.2
2018-04-07T12:19:18.686Z,23.2
2018-04-07T12:20:20.348Z,23.2
2018-04-07T12:21:23.882Z,23.1
2018-04-07T12:22:26.809Z,23.1
2018-04-07T12:23:31.338Z,23.1
2018-04-07T12:24:34.166Z,23.2
2018-04-07T12:25:36.810Z,23.2
2018-04-07T12:26:38.323Z,23.2
2018-04-07T12:27:39.643Z,23.2
2018-04-07T12:28:42.536Z,23.2
2018-04-07T12:29:43.992Z,23.2
2018-04-07T12:30:45.521Z,23.2
2018-04-07T12:31:46.941Z,23.2
2018-04-07T12:32:48.823Z,23.2
2018-04-07T12:33:50.791Z,23.2
2018-04-07T12:34:55.558Z,23.1
2018-04-07T12:35:57.080Z,23
2018-04-07T12:36:58.420Z,23.1
2018-04-07T12:37:59.721Z,23.1
2018-04-07T12:39:01.340Z,23
2018-04-07T12:40:02.935Z,23.1
2018-04-07T12:41:07.113Z,23.1
2018-04-07T12:42:09.086Z,23.1
2018-04-07T12:43:10.441Z,23.1
2018-04-07T12:44:11.849Z,23.1
2018-04-07T12:45:13.240Z,23.1
2018-04-07T12:46:14.801Z,23.1
2018-04-07T12:47:16.431Z,23.1
2018-04-07T12:48:17.919Z,23.1
2018-04-07T12:49:19.515Z,23
2018-04-07T12:50:21.102Z,23.1
2018-04-07T12:51:25.382Z,23.1
2018-04-07T12:52:27.706Z,23.1
2018-04-07T12:53:29.098Z,23.1
2018-04-07T12:54:30.452Z,23.1
2018-04-07T12:55:31.951Z,23.1
2018-04-07T12:56:33.917Z,23
2018-04-07T12:57:35.388Z,23
2018-04-07T12:58:36.876Z,23
2018-04-07T12:59:38.314Z,23
2018-04-07T13:00:39.901Z,23
2018-04-07T13:01:42.474Z,23
2018-04-07T13:02:44.093Z,22.9
2018-04-07T13:03:45.637Z,23
2018-04-07T13:04:47.318Z,23
2018-04-07T13:05:48.830Z,23
2018-04-07T13:06:50.360Z,23.1
2018-04-07T13:07:54.464Z,23.1
2018-04-07T13:08:56.071Z,23.1
2018-04-07T13:09:57.576Z,23.1
2018-04-07T13:10:58.836Z,23
2018-04-07T13:12:00.353Z,23
2018-04-07T13:13:02.025Z,23
2018-04-07T13:14:03.413Z,23
2018-04-07T13:15:04.674Z,23
2018-04-07T13:16:06.091Z,23
2018-04-07T13:17:07.549Z,22.9
2018-04-07T13:18:09.149Z,22.9
2018-04-07T13:19:10.887Z,23
2018-04-07T13:20:12.225Z,23
2018-04-07T13:21:17.152Z,23
2018-04-07T13:22:19.553Z,22.9
2018-04-07T13:23:21.089Z,23
2018-04-07T13:24:22.702Z,23
2018-04-07T13:25:24.021Z,23
2018-04-07T13:26:25.265Z,23
2018-04-07T13:27:26.759Z,23
2018-04-07T13:28:28.064Z,23
2018-04-07T13:29:29.421Z,23
2018-04-07T13:30:30.909Z,23
2018-04-07T13:31:32.329Z,23.1
2018-04-07T13:32:33.908Z,23
2018-04-07T13:33:38.617Z,23
2018-04-07T13:34:36.934Z,23
2018-04-07T13:35:38.373Z,23.1
2018-04-07T13:36:39.815Z,23.1
2018-04-07T13:37:41.264Z,23.1
2018-04-07T13:38:42.935Z,23.1
2018-04-07T13:39:44.302Z,23
2018-04-07T13:40:45.697Z,23
2018-04-07T13:41:47.284Z,23
2018-04-07T13:42:48.983Z,22.9
2018-04-07T13:43:50.585Z,23
2018-04-07T13:44:52.243Z,23
2018-04-07T13:45:53.905Z,23.1
2018-04-07T13:46:55.395Z,23.1
2018-04-07T13:47:56.880Z,23
2018-04-07T13:49:00.783Z,23
2018-04-07T13:50:02.395Z,23.1
2018-04-07T13:51:03.940Z,23
2018-04-07T13:52:05.507Z,23.1
2018-04-07T13:53:07.284Z,23
2018-04-07T13:54:08.701Z,23.1
2018-04-07T13:55:10.039Z,22.9
2018-04-07T13:56:11.635Z,23
2018-04-07T13:57:13.136Z,23.1